Time;durP1;ratioP1;P1;durP2;ratioP2;P2;SDS_P1;SDS_P2;PMS_P1;PMS_P2;Temp;Humidity;BMP_temperature;BMP_pressure;BME280_temperature;BME280_humidity;BME280_pressure;Samples;Min_cycle;Max_cycle;Signal;HPM_P1;HPM_P2
2021/07/14 00:00:26;;;;;;;7.17;5.23;;;23.20;99.30;;;;;;5036650;28;20203;-74
2021/07/14 00:02:54;;;;;;;8.73;5.70;;;23.20;99.40;;;;;;5054313;28;20929;-74
2021/07/14 00:05:22;;;;;;;9.30;5.00;;;23.20;99.40;;;;;;5019957;28;20266;-73
2021/07/14 00:07:50;;;;;;;7.73;5.23;;;23.10;98.70;;;;;;5055801;28;20223;-73
2021/07/14 00:10:27;;;;;;;6.07;5.00;;;23.10;97.70;;;;;;5058291;28;20245;-73
2021/07/14 00:23:47;;;;;;;7.17;5.23;;;23.10;98.40;;;;;;5032853;28;20205;-72
2021/07/14 00:26:14;;;;;;;5.30;4.80;;;23.10;98.10;;;;;;5032767;28;20868;-74
2021/07/14 00:28:42;;;;;;;7.27;5.20;;;23.10;97.80;;;;;;5037452;28;20214;-75
2021/07/14 00:31:14;;;;;;;8.83;5.10;;;23.00;97.30;;;;;;5042344;28;20191;-75
2021/07/14 00:33:41;;;;;;;6.57;5.20;;;23.00;97.00;;;;;;5038254;28;20227;-75
2021/07/14 00:36:07;;;;;;;6.27;5.37;;;23.00;96.70;;;;;;5040213;28;20183;-75
2021/07/14 00:38:34;;;;;;;7.73;5.90;;;23.00;96.70;;;;;;5042869;28;20191;-74
2021/07/14 00:41:02;;;;;;;5.57;5.07;;;23.00;96.90;;;;;;5043103;28;20184;-75
2021/07/14 00:43:29;;;;;;;6.87;5.20;;;23.00;96.10;;;;;;5019985;28;20246;-74
2021/07/14 00:45:55;;;;;;;6.20;5.10;;;22.90;96.30;;;;;;5038782;28;20219;-75
2021/07/14 00:48:28;;;;;;;7.30;5.63;;;22.90;96.30;;;;;;5058116;28;20223;-74
2021/07/14 00:50:55;;;;;;;9.10;5.03;;;22.90;96.10;;;;;;5055535;28;20188;-75
2021/07/14 00:53:21;;;;;;;6.53;5.20;;;22.90;95.70;;;;;;5039197;28;20283;-74
2021/07/14 00:55:48;;;;;;;7.13;4.70;;;22.90;95.80;;;;;;5029324;28;20210;-75
2021/07/14 00:58:14;;;;;;;5.53;4.90;;;22.90;95.70;;;;;;5037996;28;20222;-73
2021/07/14 01:00:40;;;;;;;5.63;5.00;;;22.90;95.20;;;;;;5038801;28;20199;-74
2021/07/14 01:03:07;;;;;;;5.67;4.90;;;22.90;95.20;;;;;;5038469;28;20191;-73
2021/07/14 01:05:41;;;;;;;7.73;4.90;;;22.90;95.40;;;;;;5038468;28;20942;-72
2021/07/14 01:08:28;;;;;;;6.87;5.20;;;22.90;95.40;;;;;;5051807;28;20187;-73
2021/07/14 01:11:10;;;;;;;6.10;5.10;;;22.80;95.40;;;;;;5039764;28;20253;-73
2021/07/14 01:13:48;;;;;;;6.57;5.07;;;22.90;95.50;;;;;;5035237;28;20199;-73
2021/07/14 01:16:22;;;;;;;6.87;4.87;;;22.90;95.50;;;;;;5035364;28;20274;-74
2021/07/14 01:19:19;;;;;;;7.13;5.30;;;22.80;95.00;;;;;;5032101;28;20219;-74
2021/07/14 01:21:51;;;;;;;5.47;4.50;;;22.90;95.40;;;;;;5037129;28;20196;-73
2021/07/14 01:24:48;;;;;;;7.63;4.70;;;22.90;95.40;;;;;;5038421;28;20276;-72
2021/07/14 01:27:20;;;;;;;5.60;4.67;;;22.80;95.20;;;;;;5021041;28;20227;-72
2021/07/14 01:29:56;;;;;;;9.97;4.93;;;22.90;94.90;;;;;;5024723;28;20187;-73
2021/07/14 01:32:33;;;;;;;7.17;4.47;;;22.80;94.50;;;;;;5037102;28;20270;-73
2021/07/14 01:35:11;;;;;;;5.20;4.60;;;22.80;94.80;;;;;;5041551;28;20221;-72
2021/07/14 01:37:43;;;;;;;5.00;4.50;;;22.90;94.70;;;;;;5041565;28;20528;-74
2021/07/14 01:40:12;;;;;;;7.83;4.30;;;22.80;94.70;;;;;;5045070;28;20294;-71
2021/07/14 01:42:43;;;;;;;5.63;4.83;;;22.80;94.50;;;;;;5049944;28;20874;-72
2021/07/14 01:45:12;;;;;;;5.97;4.37;;;22.80;94.90;;;;;;5028174;28;20665;-72
2021/07/14 01:47:41;;;;;;;5.50;4.70;;;22.80;94.60;;;;;;5042189;28;20188;-73
2021/07/14 01:50:10;;;;;;;5.10;4.60;;;22.80;94.30;;;;;;5043223;28;20223;-73
2021/07/14 01:52:38;;;;;;;5.23;4.73;;;22.90;94.50;;;;;;5060390;28;20249;-74
2021/07/14 01:55:08;;;;;;;4.93;4.40;;;22.80;94.60;;;;;;5041053;28;20217;-72
2021/07/14 01:57:38;;;;;;;5.70;3.90;;;22.90;93.30;;;;;;5035430;28;20192;-75
2021/07/14 02:00:09;;;;;;;4.20;3.23;;;22.70;92.60;;;;;;5039298;28;20200;-74
2021/07/14 02:02:48;;;;;;;3.27;2.97;;;22.70;92.00;;;;;;5042911;28;20191;-73
2021/07/14 02:05:15;;;;;;;3.07;2.73;;;22.70;90.60;;;;;;5038134;28;20279;-72
2021/07/14 02:07:42;;;;;;;3.70;2.70;;;22.70;89.20;;;;;;5041678;28;20958;-74
2021/07/14 02:10:09;;;;;;;3.07;2.43;;;22.70;89.00;;;;;;5043176;28;20992;-74
2021/07/14 02:12:39;;;;;;;4.07;1.77;;;22.70;86.70;;;;;;5057877;28;20191;-74
2021/07/14 02:15:11;;;;;;;2.37;1.70;;;22.70;82.90;;;;;;5039182;28;20222;-74
2021/07/14 02:18:06;;;;;;;2.30;1.50;;;22.70;82.60;;;;;;5041017;28;20195;-73
2021/07/14 02:20:32;;;;;;;1.80;1.40;;;22.70;79.00;;;;;;5035582;28;20196;-75
2021/07/14 02:23:01;;;;;;;2.90;1.23;;;22.70;77.40;;;;;;5057864;28;20278;-73
2021/07/14 02:25:28;;;;;;;2.47;1.10;;;22.70;73.70;;;;;;5039528;28;20789;-73
2021/07/14 02:27:54;;;;;;;1.77;1.10;;;22.70;71.40;;;;;;5035651;28;20206;-73
2021/07/14 02:30:23;;;;;;;1.27;1.03;;;22.70;70.60;;;;;;5032836;28;20194;-72
2021/07/14 02:32:53;;;;;;;1.63;0.77;;;22.70;69.10;;;;;;5021672;28;20322;-72
2021/07/14 02:35:20;;;;;;;1.30;0.70;;;22.70;68.30;;;;;;5041526;28;20640;-73
2021/07/14 02:38:07;;;;;;;0.60;0.60;;;22.60;66.60;;;;;;5040058;28;20373;-75
2021/07/14 02:41:07;;;;;;;1.43;0.70;;;22.70;65.10;;;;;;5026907;28;20229;-72
2021/07/14 02:43:41;;;;;;;1.80;0.90;;;22.70;65.00;;;;;;5038412;28;20560;-73
2021/07/14 02:46:13;;;;;;;3.07;0.80;;;22.70;66.40;;;;;;5037909;28;20855;-73
2021/07/14 02:48:41;;;;;;;1.87;0.90;;;22.70;65.60;;;;;;5020119;28;20221;-73
2021/07/14 02:51:09;;;;;;;2.90;0.80;;;22.70;63.60;;;;;;5018162;28;20203;-72
2021/07/14 02:53:45;;;;;;;2.47;0.70;;;22.70;63.50;;;;;;5027636;28;20187;-73
2021/07/14 02:56:17;;;;;;;1.90;0.60;;;22.70;62.80;;;;;;5042303;28;20206;-74
2021/07/14 02:58:59;;;;;;;2.57;0.80;;;22.70;63.50;;;;;;5036981;28;20203;-73
2021/07/14 03:01:29;;;;;;;0.90;0.80;;;22.70;63.80;;;;;;5037029;28;20195;-71
2021/07/14 03:03:58;;;;;;;0.70;0.70;;;22.70;61.40;;;;;;5043397;28;20203;-73
2021/07/14 03:06:31;;;;;;;0.70;0.53;;;22.70;62.80;;;;;;5055710;28;20192;-73
2021/07/14 03:09:03;;;;;;;0.97;0.70;;;22.60;62.20;;;;;;5025155;28;20306;-72
2021/07/14 03:11:43;;;;;;;2.23;0.90;;;22.60;61.60;;;;;;5058329;28;20640;-73
2021/07/14 03:14:15;;;;;;;2.57;0.70;;;22.60;58.80;;;;;;5039002;28;20188;-73
2021/07/14 03:16:44;;;;;;;1.00;0.90;;;22.60;62.10;;;;;;5041704;28;20214;-75
2021/07/14 03:19:12;;;;;;;1.43;1.20;;;22.70;64.00;;;;;;5041057;28;20695;-74
2021/07/14 03:21:39;;;;;;;1.30;1.10;;;22.70;64.40;;;;;;5041601;28;20187;-76
2021/07/14 03:24:08;;;;;;;2.30;1.13;;;22.70;60.80;;;;;;5026446;28;20214;-72
2021/07/14 03:26:38;;;;;;;1.63;1.10;;;22.60;60.90;;;;;;5042232;28;20188;-74
2021/07/14 03:29:07;;;;;;;1.00;0.90;;;22.60;61.90;;;;;;5039716;28;20196;-74
2021/07/14 03:31:34;;;;;;;1.47;1.10;;;22.70;63.40;;;;;;5034493;28;20210;-74
2021/07/14 03:34:01;;;;;;;2.17;1.37;;;22.70;65.10;;;;;;5043004;28;20674;-76
2021/07/14 03:36:28;;;;;;;2.37;1.40;;;22.70;65.70;;;;;;5039827;28;20183;-74
2021/07/14 03:38:56;;;;;;;1.80;1.60;;;22.80;68.50;;;;;;5042593;28;20191;-74
2021/07/14 03:41:23;;;;;;;2.40;1.60;;;22.70;68.20;;;;;;5026607;28;20230;-75
2021/07/14 03:43:53;;;;;;;2.40;1.80;;;22.70;70.30;;;;;;5044384;28;20195;-75
2021/07/14 03:46:20;;;;;;;2.10;1.90;;;22.70;67.90;;;;;;5042021;28;20222;-76
2021/07/14 03:48:48;;;;;;;2.33;1.80;;;22.80;71.90;;;;;;5043307;28;20258;-75
2021/07/14 03:51:17;;;;;;;3.93;2.10;;;22.80;72.10;;;;;;5038757;28;20188;-74
2021/07/14 03:53:44;;;;;;;4.73;2.60;;;22.90;74.60;;;;;;5043953;28;20283;-76
2021/07/14 03:56:12;;;;;;;3.83;3.13;;;22.90;76.10;;;;;;5044067;28;20184;-75
2021/07/14 03:58:38;;;;;;;3.60;2.97;;;22.90;77.40;;;;;;5040939;28;20548;-76
2021/07/14 04:01:05;;;;;;;5.60;3.37;;;22.80;79.70;;;;;;5032646;28;20191;-74
2021/07/14 04:03:32;;;;;;;6.03;3.80;;;23.00;81.70;;;;;;5023234;28;20286;-75
2021/07/14 04:06:05;;;;;;;6.30;3.77;;;23.00;83.40;;;;;;5042420;28;20230;-75
2021/07/14 04:09:06;;;;;;;6.93;3.77;;;23.00;84.40;;;;;;5040628;28;20844;-75
2021/07/14 04:11:33;;;;;;;6.47;4.03;;;23.00;85.60;;;;;;5033131;28;20672;-74
2021/07/14 04:13:59;;;;;;;5.33;4.20;;;23.10;86.80;;;;;;5042090;28;20210;-73
2021/07/14 04:16:27;;;;;;;5.50;4.20;;;23.10;88.10;;;;;;5057386;28;20791;-74
2021/07/14 04:18:53;;;;;;;5.67;4.00;;;23.10;89.20;;;;;;5024998;28;20242;-74
2021/07/14 04:21:19;;;;;;;4.57;4.07;;;23.10;89.80;;;;;;5040892;28;20200;-74
2021/07/14 04:23:46;;;;;;;4.53;4.00;;;23.20;90.50;;;;;;5041919;28;20206;-74
2021/07/14 04:26:12;;;;;;;6.17;4.47;;;23.20;90.90;;;;;;5044163;28;20219;-72
2021/07/14 04:28:38;;;;;;;7.43;4.17;;;23.20;90.80;;;;;;5024654;28;20184;-76
2021/07/14 04:31:05;;;;;;;6.87;4.33;;;23.30;90.90;;;;;;5035818;28;20195;-72
2021/07/14 04:33:31;;;;;;;4.33;3.80;;;23.30;91.00;;;;;;5033952;28;20268;-77
2021/07/14 04:35:59;;;;;;;5.10;4.10;;;23.30;91.00;;;;;;5040044;28;20602;-74
2021/07/14 04:38:25;;;;;;;6.32;4.07;;;23.40;91.10;;;;;;5023431;28;20905;-74
2021/07/14 04:40:51;;;;;;;5.93;4.80;;;23.40;91.60;;;;;;5043910;28;20214;-74
2021/07/14 04:43:18;;;;;;;6.97;4.73;;;23.50;91.60;;;;;;5042015;28;20226;-73
2021/07/14 04:45:44;;;;;;;6.00;4.40;;;23.50;91.80;;;;;;5039463;28;20227;-73
2021/07/14 04:48:10;;;;;;;5.13;4.60;;;23.50;92.00;;;;;;5057858;28;20274;-75
2021/07/14 04:50:37;;;;;;;6.13;4.73;;;23.60;92.40;;;;;;5045358;28;20202;-73
2021/07/14 04:53:03;;;;;;;6.83;4.37;;;23.60;92.70;;;;;;5038254;28;20195;-74
2021/07/14 04:55:30;;;;;;;5.73;4.43;;;23.70;93.00;;;;;;5023528;28;20742;-73
2021/07/14 04:57:56;;;;;;;5.50;5.00;;;23.70;93.00;;;;;;5041841;28;20690;-73
2021/07/14 05:00:22;;;;;;;6.50;4.83;;;23.70;93.30;;;;;;5037430;28;20202;-75
2021/07/14 05:02:49;;;;;;;6.57;5.00;;;23.70;93.40;;;;;;5031091;28;20218;-72
2021/07/14 05:05:16;;;;;;;13.25;4.90;;;23.80;93.70;;;;;;5049230;28;20215;-72
2021/07/14 05:07:44;;;;;;;6.20;4.85;;;23.80;94.20;;;;;;5020029;28;20191;-73
2021/07/14 05:10:11;;;;;;;9.70;5.80;;;23.90;94.00;;;;;;5053200;28;20267;-73
2021/07/14 05:12:38;;;;;;;5.70;5.05;;;23.90;95.40;;;;;;5040121;28;20200;-72
2021/07/14 05:15:06;;;;;;;6.87;5.23;;;23.90;95.30;;;;;;5039813;28;20191;-72
2021/07/14 05:17:32;;;;;;;8.40;5.30;;;24.00;95.50;;;;;;5042907;28;20238;-71
2021/07/14 05:19:58;;;;;;;7.60;5.65;;;24.10;95.70;;;;;;5041133;28;20312;-73
2021/07/14 05:22:25;;;;;;;5.95;5.25;;;24.10;95.40;;;;;;5039425;28;20652;-72
2021/07/14 05:24:51;;;;;;;8.30;5.40;;;24.30;96.20;;;;;;5023471;28;20237;-72
2021/07/14 05:27:17;;;;;;;10.43;5.00;;;24.20;95.20;;;;;;5038652;28;20213;-73
2021/07/14 05:29:44;;;;;;;6.70;4.95;;;24.20;95.00;;;;;;5042488;28;20864;-71
2021/07/14 05:32:10;;;;;;;7.40;4.70;;;24.30;94.50;;;;;;5037554;28;20529;-74
2021/07/14 05:34:36;;;;;;;5.38;4.35;;;24.30;94.10;;;;;;5027645;28;20210;-72
2021/07/14 05:37:03;;;;;;;4.82;4.00;;;24.30;94.10;;;;;;5039848;28;20179;-72
2021/07/14 05:39:29;;;;;;;5.07;3.92;;;24.30;93.60;;;;;;5043457;28;20688;-72
2021/07/14 05:41:55;;;;;;;5.75;3.75;;;24.40;93.60;;;;;;5020721;28;20286;-73
2021/07/14 05:44:21;;;;;;;7.05;3.92;;;24.40;93.30;;;;;;5038674;28;20597;-72
2021/07/14 05:46:48;;;;;;;8.32;4.25;;;24.50;93.40;;;;;;5057764;28;20266;-70
2021/07/14 05:49:14;;;;;;;4.45;3.70;;;24.50;92.80;;;;;;5039451;28;20698;-73
2021/07/14 05:51:41;;;;;;;5.53;3.83;;;24.70;92.00;;;;;;5024389;28;20250;-71
2021/07/14 05:54:07;;;;;;;5.07;4.10;;;24.60;92.00;;;;;;5022673;28;20187;-73
2021/07/14 05:56:33;;;;;;;8.35;3.78;;;24.60;91.80;;;;;;5040841;28;20302;-72
2021/07/14 05:59:00;;;;;;;4.03;3.38;;;24.70;90.70;;;;;;5041903;28;20214;-71
2021/07/14 06:01:26;;;;;;;5.05;3.35;;;24.70;91.40;;;;;;5040684;28;20295;-72
2021/07/14 06:03:53;;;;;;;3.42;2.70;;;24.80;90.50;;;;;;5034434;28;20191;-71
2021/07/14 06:06:20;;;;;;;3.88;3.30;;;24.90;88.10;;;;;;5048883;28;20235;-71
2021/07/14 06:08:47;;;;;;;4.32;3.92;;;24.90;86.50;;;;;;5041787;28;20772;-71
2021/07/14 06:11:13;;;;;;;5.20;3.88;;;25.80;87.00;;;;;;5056076;28;20199;-72
2021/07/14 06:13:40;;;;;;;6.18;4.07;;;26.20;86.00;;;;;;5044023;28;20541;-71
2021/07/14 06:16:07;;;;;;;6.55;3.90;;;26.60;87.40;;;;;;5041102;28;20715;-72
2021/07/14 06:18:34;;;;;;;6.28;4.55;;;26.90;88.60;;;;;;5039742;28;20180;-73
2021/07/14 06:21:00;;;;;;;7.57;4.22;;;27.00;89.70;;;;;;5041344;28;20187;-72
2021/07/14 06:23:26;;;;;;;11.57;5.55;;;27.10;90.40;;;;;;5047181;28;20296;-72
2021/07/14 06:25:54;;;;;;;9.40;5.75;;;27.30;95.10;;;;;;5046279;28;20223;-73
2021/07/14 06:28:22;;;;;;;8.38;6.22;;;27.10;97.60;;;;;;5043741;28;20183;-72
2021/07/14 06:30:49;;;;;;;12.68;7.70;;;27.10;99.90;;;;;;5041864;28;20186;-73
2021/07/14 06:33:16;;;;;;;15.35;7.75;;;27.20;99.90;;;;;;5060777;28;20191;-72
2021/07/14 06:35:43;;;;;;;14.93;7.28;;;27.40;99.90;;;;;;5017529;28;20721;-74
2021/07/14 06:38:10;;;;;;;15.20;7.97;;;27.30;99.90;;;;;;5046452;28;20696;-70
2021/07/14 06:40:38;;;;;;;15.15;7.82;;;27.50;99.90;;;;;;5058367;28;20204;-72
2021/07/14 06:43:13;;;;;;;15.20;7.35;;;27.60;99.90;;;;;;5030457;28;20199;-72
2021/07/14 06:45:40;;;;;;;15.35;6.78;;;27.60;99.90;;;;;;5042521;28;20222;-72
2021/07/14 06:48:07;;;;;;;15.93;6.80;;;27.70;99.90;;;;;;5026151;28;20693;-71
2021/07/14 06:50:34;;;;;;;12.60;6.00;;;27.80;99.90;;;;;;5044557;28;20187;-74
2021/07/14 06:53:02;;;;;;;7.53;4.80;;;27.60;99.90;;;;;;5044453;28;20198;-72
2021/07/14 06:55:29;;;;;;;16.98;5.65;;;27.70;99.90;;;;;;5026418;28;20198;-70
2021/07/14 06:57:56;;;;;;;13.70;6.60;;;27.70;99.90;;;;;;5044690;28;20207;-72
2021/07/14 07:00:22;;;;;;;11.90;6.82;;;27.80;99.90;;;;;;5025017;28;20254;-71
2021/07/14 07:02:48;;;;;;;10.07;6.82;;;27.80;99.90;;;;;;5027922;28;20188;-71
2021/07/14 07:05:16;;;;;;;9.13;5.78;;;27.80;99.90;;;;;;5022591;28;20211;-72
2021/07/14 07:07:42;;;;;;;12.23;6.35;;;27.80;99.90;;;;;;5036505;28;20188;-73
2021/07/14 07:10:10;;;;;;;12.90;6.70;;;27.80;99.90;;;;;;5025152;28;20187;-74
2021/07/14 07:12:36;;;;;;;11.70;6.40;;;28.10;99.90;;;;;;5041727;28;20660;-72
2021/07/14 07:15:04;;;;;;;14.73;7.20;;;27.90;99.90;;;;;;5047045;28;20191;-71
2021/07/14 07:17:30;;;;;;;11.80;6.70;;;28.00;99.90;;;;;;5043982;28;20210;-73
2021/07/14 07:19:57;;;;;;;12.55;7.00;;;28.10;99.90;;;;;;5047171;28;20179;-71
2021/07/14 07:22:23;;;;;;;11.73;6.55;;;28.10;99.90;;;;;;5039304;28;20252;-73
2021/07/14 07:24:50;;;;;;;13.98;6.97;;;28.10;99.90;;;;;;5037839;28;20298;-72
2021/07/14 07:27:16;;;;;;;15.55;6.82;;;28.30;99.90;;;;;;5037899;28;20184;-72
2021/07/14 07:29:44;;;;;;;14.88;7.20;;;28.30;99.90;;;;;;5044094;28;20261;-76
2021/07/14 07:32:10;;;;;;;15.35;7.55;;;28.40;99.90;;;;;;5042490;28;20207;-73
2021/07/14 07:34:36;;;;;;;13.40;7.82;;;28.50;99.90;;;;;;5027168;28;20187;-74
2021/07/14 07:37:03;;;;;;;17.65;6.95;;;28.60;99.90;;;;;;5037348;28;20551;-74
2021/07/14 07:39:31;;;;;;;13.93;7.38;;;28.70;99.90;;;;;;5022451;28;20183;-74
2021/07/14 07:42:01;;;;;;;13.98;7.25;;;28.70;99.90;;;;;;5058190;28;20226;-75
2021/07/14 07:44:28;;;;;;;18.65;7.72;;;28.70;99.90;;;;;;5026105;28;20235;-75
2021/07/14 07:46:55;;;;;;;16.50;8.25;;;28.60;99.90;;;;;;5041160;28;20208;-74
2021/07/14 07:49:21;;;;;;;16.30;7.32;;;28.70;99.90;;;;;;5043460;28;20245;-71
2021/07/14 07:51:48;;;;;;;16.88;8.20;;;28.80;99.90;;;;;;5040203;28;20179;-73
2021/07/14 07:54:14;;;;;;;19.38;8.10;;;28.80;99.90;;;;;;5043756;28;20645;-73
2021/07/14 07:56:40;;;;;;;10.63;6.80;;;28.80;99.90;;;;;;5041242;28;20191;-75
2021/07/14 07:59:07;;;;;;;14.40;8.02;;;28.80;99.90;;;;;;5040271;28;20548;-73
2021/07/14 08:01:35;;;;;;;21.77;8.15;;;28.70;99.90;;;;;;5042015;28;20219;-72
2021/07/14 08:04:01;;;;;;;14.80;8.30;;;28.80;99.90;;;;;;5041250;28;20191;-72
2021/07/14 08:06:28;;;;;;;13.90;8.18;;;28.90;99.90;;;;;;5039110;28;20742;-73
2021/07/14 08:08:54;;;;;;;16.50;7.88;;;29.00;99.90;;;;;;5030006;28;20274;-77
2021/07/14 08:11:21;;;;;;;14.73;7.55;;;29.10;99.90;;;;;;5038640;28;20180;-72
2021/07/14 08:13:48;;;;;;;15.95;7.05;;;29.20;99.90;;;;;;5040827;28;20190;-73
2021/07/14 08:16:14;;;;;;;15.25;8.27;;;29.30;99.90;;;;;;5042810;28;20198;-74
2021/07/14 08:18:41;;;;;;;11.52;7.13;;;29.40;99.90;;;;;;5040564;28;20735;-74
2021/07/14 08:21:07;;;;;;;12.20;7.10;;;29.50;99.90;;;;;;5040230;28;20222;-70
2021/07/14 08:23:33;;;;;;;16.98;7.38;;;29.60;99.90;;;;;;5040208;28;20203;-74
2021/07/14 08:26:00;;;;;;;15.15;7.43;;;29.60;99.90;;;;;;5045122;28;20318;-71
2021/07/14 08:28:26;;;;;;;18.15;7.07;;;29.60;99.90;;;;;;5039099;28;20180;-75
2021/07/14 08:30:53;;;;;;;10.95;6.05;;;29.60;99.90;;;;;;5043092;28;20584;-74
2021/07/14 08:33:19;;;;;;;15.38;5.28;;;29.70;99.90;;;;;;5025925;28;20194;-75
2021/07/14 08:35:45;;;;;;;8.85;3.97;;;29.60;99.90;;;;;;5042337;28;20684;-72
2021/07/14 08:38:12;;;;;;;9.75;3.88;;;29.90;99.10;;;;;;5038416;28;20490;-71
2021/07/14 08:40:40;;;;;;;13.18;5.32;;;29.90;98.70;;;;;;5017751;28;20190;-70
2021/07/14 08:43:10;;;;;;;6.13;3.72;;;30.00;99.90;;;;;;5045959;28;20218;-75
2021/07/14 08:45:38;;;;;;;10.93;3.88;;;30.30;96.00;;;;;;5041101;28;20254;-75
2021/07/14 08:48:06;;;;;;;12.98;4.88;;;30.20;96.90;;;;;;5040580;28;20194;-74
2021/07/14 08:50:41;;;;;;;10.15;5.10;;;30.40;98.60;;;;;;5042053;28;20192;-73
2021/07/14 08:53:07;;;;;;;9.25;5.30;;;30.50;99.90;;;;;;5042638;28;20579;-76
2021/07/14 08:55:34;;;;;;;14.20;4.78;;;30.60;99.90;;;;;;5023739;28;20237;-73
2021/07/14 08:58:01;;;;;;;8.30;4.68;;;30.60;99.80;;;;;;5020109;28;20196;-71
2021/07/14 09:00:29;;;;;;;8.65;4.55;;;30.70;98.40;;;;;;5021707;28;20238;-73
2021/07/14 09:02:57;;;;;;;6.78;4.88;;;30.80;97.80;;;;;;5022943;28;20180;-73
2021/07/14 09:05:23;;;;;;;9.77;5.90;;;30.70;99.10;;;;;;5036870;28;20265;-73
2021/07/14 09:07:49;;;;;;;9.55;5.88;;;30.90;99.90;;;;;;5024219;28;20217;-74
2021/07/14 09:10:17;;;;;;;11.80;6.07;;;31.00;99.90;;;;;;5013461;28;20249;-74
2021/07/14 09:12:46;;;;;;;12.35;5.68;;;30.90;99.90;;;;;;5021179;28;20198;-74
2021/07/14 09:15:15;;;;;;;15.10;6.63;;;31.10;99.90;;;;;;5040535;28;20201;-72
2021/07/14 09:17:55;;;;;;;12.65;6.70;;;31.20;99.90;;;;;;5054998;28;20439;-73
2021/07/14 09:20:31;;;;;;;14.13;6.38;;;31.30;99.90;;;;;;5036977;28;20184;-74
2021/07/14 09:23:20;;;;;;;16.27;7.47;;;31.20;99.90;;;;;;5038610;28;20187;-72
2021/07/14 09:25:56;;;;;;;15.30;7.03;;;31.30;99.90;;;;;;5056962;28;20270;-74
2021/07/14 09:28:29;;;;;;;17.05;8.20;;;31.30;99.90;;;;;;5042123;28;20191;-72
2021/07/14 09:31:04;;;;;;;14.98;7.82;;;31.10;99.90;;;;;;5037848;28;20299;-72
2021/07/14 09:33:31;;;;;;;16.25;7.50;;;31.20;99.90;;;;;;5041091;28;20175;-73
2021/07/14 09:35:59;;;;;;;9.70;6.88;;;31.30;99.90;;;;;;5054771;28;20192;-72
2021/07/14 09:38:34;;;;;;;13.70;7.43;;;31.30;99.90;;;;;;5042951;28;20187;-72
2021/07/14 09:41:13;;;;;;;15.40;7.38;;;31.30;99.90;;;;;;5028624;28;20281;-70
2021/07/14 09:43:45;;;;;;;14.32;7.88;;;31.30;99.90;;;;;;5039846;28;20268;-71
2021/07/14 09:46:14;;;;;;;18.25;7.43;;;31.40;99.90;;;;;;5040029;28;20211;-70
2021/07/14 09:48:46;;;;;;;16.95;7.82;;;31.50;99.90;;;;;;5043104;28;20186;-73
2021/07/14 09:51:19;;;;;;;11.88;7.70;;;31.30;99.90;;;;;;5038113;28;20180;-72
2021/07/14 09:53:56;;;;;;;17.40;8.35;;;31.40;99.90;;;;;;5037870;28;20670;-72
2021/07/14 09:56:30;;;;;;;13.25;7.90;;;31.40;99.90;;;;;;5045909;28;20248;-71
2021/07/14 09:59:10;;;;;;;13.30;7.82;;;31.60;99.90;;;;;;5044564;28;20268;-74
2021/07/14 10:01:46;;;;;;;17.15;8.38;;;31.40;99.90;;;;;;5027389;28;20719;-73
2021/07/14 10:04:33;;;;;;;17.13;7.60;;;31.40;99.90;;;;;;5042866;28;20280;-71
2021/07/14 10:07:35;;;;;;;14.60;8.35;;;31.70;99.90;;;;;;5027362;28;20211;-72
2021/07/14 10:10:12;;;;;;;12.32;7.95;;;31.80;99.90;;;;;;5058551;28;20863;-73
2021/07/14 10:12:39;;;;;;;16.13;8.68;;;31.90;99.90;;;;;;5031630;28;20270;-74
2021/07/14 10:15:14;;;;;;;16.38;8.30;;;31.80;99.90;;;;;;5043933;28;20183;-74
2021/07/14 10:17:48;;;;;;;20.10;8.35;;;31.90;99.90;;;;;;5047139;28;20203;-74
2021/07/14 10:20:37;;;;;;;12.07;8.25;;;32.00;99.90;;;;;;5028325;28;20210;-74
2021/07/14 10:23:11;;;;;;;16.98;9.57;;;31.90;99.90;;;;;;5026893;28;20815;-76
2021/07/14 10:25:42;;;;;;;14.73;8.20;;;31.90;99.90;;;;;;5044563;28;20320;-73
2021/07/14 10:28:14;;;;;;;19.38;8.25;;;32.00;99.90;;;;;;5031462;28;20179;-74
2021/07/14 10:30:48;;;;;;;14.52;8.30;;;32.20;99.90;;;;;;5044353;28;20405;-76
2021/07/14 10:33:21;;;;;;;17.95;8.00;;;32.30;99.90;;;;;;5028217;28;20191;-74
2021/07/14 10:35:51;;;;;;;17.63;8.15;;;32.30;99.90;;;;;;5041963;28;20188;-77
2021/07/14 10:38:30;;;;;;;13.75;7.45;;;32.40;99.90;;;;;;5061007;28;20218;-74
2021/07/14 10:40:57;;;;;;;14.18;7.68;;;32.50;99.90;;;;;;5046024;28;20202;-74
2021/07/14 10:43:28;;;;;;;14.30;8.40;;;32.50;99.90;;;;;;5016734;28;20419;-76
2021/07/14 10:45:54;;;;;;;14.73;7.60;;;32.40;99.90;;;;;;5041950;28;20230;-76
2021/07/14 10:48:25;;;;;;;15.13;8.18;;;32.60;99.90;;;;;;5027273;28;20398;-76
2021/07/14 10:50:54;;;;;;;13.35;7.88;;;32.60;99.90;;;;;;5032303;28;20893;-77
2021/07/14 10:53:22;;;;;;;15.02;8.23;;;32.60;99.90;;;;;;5040494;28;20184;-77
2021/07/14 10:55:53;;;;;;;14.05;7.90;;;32.70;99.90;;;;;;5030216;28;20221;-76
2021/07/14 10:58:23;;;;;;;17.52;6.60;;;32.70;99.90;;;;;;5045108;28;20226;-75
2021/07/14 11:00:50;;;;;;;13.50;7.38;;;32.70;99.90;;;;;;5040016;28;20234;-73
2021/07/14 11:03:38;;;;;;;16.63;8.63;;;32.60;99.90;;;;;;5039691;28;20184;-75
2021/07/14 11:06:10;;;;;;;13.13;7.43;;;32.80;99.90;;;;;;5059089;28;20207;-76
2021/07/14 11:08:48;;;;;;;15.75;8.30;;;32.80;99.90;;;;;;5042300;28;20536;-74
2021/07/14 11:11:22;;;;;;;12.02;7.15;;;32.80;99.90;;;;;;5044208;28;20221;-77
2021/07/14 11:14:09;;;;;;;16.58;7.32;;;32.80;99.90;;;;;;5042584;28;20188;-74
2021/07/14 11:16:39;;;;;;;14.15;6.60;;;32.90;99.90;;;;;;5044057;28;20494;-75
2021/07/14 11:19:10;;;;;;;13.70;7.50;;;32.90;99.90;;;;;;5042521;28;20282;-74
2021/07/14 11:22:00;;;;;;;14.90;7.13;;;32.90;99.90;;;;;;5041208;28;20187;-75
2021/07/14 11:24:46;;;;;;;14.13;7.15;;;33.00;99.90;;;;;;5030675;28;20673;-75
2021/07/14 11:27:28;;;;;;;15.82;7.10;;;33.10;99.90;;;;;;5041472;28;20190;-77
2021/07/14 11:30:14;;;;;;;13.55;7.20;;;33.00;99.90;;;;;;5042755;28;20199;-76
2021/07/14 11:32:43;;;;;;;12.68;7.03;;;33.00;99.90;;;;;;5040508;28;20207;-73
2021/07/14 11:35:20;;;;;;;16.17;6.95;;;33.00;99.90;;;;;;5024514;28;20518;-77
2021/07/14 11:38:00;;;;;;;13.90;6.72;;;33.10;99.90;;;;;;5042654;28;20183;-75
2021/07/14 11:40:26;;;;;;;10.75;6.82;;;33.00;99.90;;;;;;5026556;28;20667;-76
2021/07/14 11:43:12;;;;;;;19.73;7.78;;;33.10;99.90;;;;;;5037246;28;20318;-76
2021/07/14 11:45:46;;;;;;;11.35;6.40;;;33.20;99.90;;;;;;5011225;28;20851;-75
2021/07/14 11:48:19;;;;;;;11.68;7.05;;;33.20;99.90;;;;;;5027708;28;20284;-74
2021/07/14 11:51:14;;;;;;;13.90;6.40;;;33.10;99.90;;;;;;5041697;28;20563;-75
2021/07/14 11:53:48;;;;;;;13.32;6.50;;;33.20;99.90;;;;;;5057081;28;20179;-74
2021/07/14 11:56:17;;;;;;;20.00;8.25;;;33.20;99.90;;;;;;5025770;28;20211;-76
2021/07/14 11:59:26;;;;;;;14.45;6.75;;;33.20;99.90;;;;;;5037795;28;20188;-75
2021/07/14 12:02:01;;;;;;;16.55;6.93;;;33.20;99.90;;;;;;5044997;28;20271;-75
2021/07/14 12:04:29;;;;;;;14.73;7.50;;;33.10;99.90;;;;;;5041333;28;20340;-74
2021/07/14 12:07:12;;;;;;;14.60;7.22;;;33.00;99.90;;;;;;5038652;28;20643;-75
2021/07/14 12:09:44;;;;;;;17.95;7.78;;;33.00;99.90;;;;;;5039941;28;20196;-75
2021/07/14 12:12:19;;;;;;;15.90;7.78;;;33.10;99.90;;;;;;5024787;28;20668;-74
2021/07/14 12:14:49;;;;;;;17.55;8.20;;;33.10;99.90;;;;;;5035869;28;20199;-74
2021/07/14 12:17:25;;;;;;;18.00;8.38;;;33.10;99.90;;;;;;5047356;28;20529;-76
2021/07/14 12:19:58;;;;;;;16.90;8.05;;;32.90;99.90;;;;;;5040343;28;20187;-74
2021/07/14 12:22:35;;;;;;;14.10;8.10;;;33.00;99.90;;;;;;5024795;28;20763;-75
2021/07/14 12:25:13;;;;;;;20.17;8.32;;;33.10;99.90;;;;;;5044063;28;20261;-76
2021/07/14 12:27:45;;;;;;;15.38;7.45;;;33.00;99.90;;;;;;5040433;28;20183;-75
2021/07/14 12:30:23;;;;;;;13.45;8.02;;;33.10;99.90;;;;;;5025997;28;20278;-76
2021/07/14 12:32:58;;;;;;;15.93;7.57;;;33.10;99.90;;;;;;5060442;28;20191;-74
2021/07/14 12:35:29;;;;;;;24.20;8.00;;;33.10;99.90;;;;;;5041017;28;20176;-75
2021/07/14 12:38:03;;;;;;;14.52;7.32;;;33.10;99.90;;;;;;5038670;28;20218;-75
2021/07/14 12:40:41;;;;;;;16.88;7.60;;;33.00;99.90;;;;;;5056521;28;20187;-75
2021/07/14 12:43:17;;;;;;;20.83;7.93;;;33.00;99.90;;;;;;5042664;28;20199;-77
2021/07/14 12:45:49;;;;;;;19.80;7.82;;;33.20;99.90;;;;;;5035683;28;20259;-76
2021/07/14 12:48:23;;;;;;;18.27;8.07;;;33.10;99.90;;;;;;5035870;28;20227;-74
2021/07/14 12:50:52;;;;;;;17.95;7.63;;;33.30;99.90;;;;;;5042239;28;20183;-77
2021/07/14 12:53:20;;;;;;;18.60;7.35;;;33.40;99.90;;;;;;5027030;28;20742;-76
2021/07/14 12:55:49;;;;;;;19.63;7.90;;;33.40;99.90;;;;;;5056202;28;20183;-75
2021/07/14 12:58:23;;;;;;;18.90;7.78;;;33.20;99.90;;;;;;5042748;28;20184;-74
2021/07/14 13:01:03;;;;;;;16.95;7.82;;;33.30;99.90;;;;;;5059444;28;20214;-77
2021/07/14 13:03:31;;;;;;;16.08;7.70;;;33.20;99.90;;;;;;5029001;28;20187;-76
2021/07/14 13:05:59;;;;;;;17.50;7.47;;;33.40;99.90;;;;;;5039126;28;20222;-75
2021/07/14 13:08:29;;;;;;;21.42;7.95;;;33.40;99.90;;;;;;5037470;28;20188;-76
2021/07/14 13:10:57;;;;;;;22.10;7.65;;;33.30;99.90;;;;;;5033404;28;20188;-77